sensor_id;sensor_type;location;lat;lon;timestamp;P1;durP1;ratioP1;P2;durP2;ratioP2
50605;SDS011;36557;53.572;10.170;2022-11-09T00:01:17;3.33;;;1.50;;
50605;SDS011;36557;53.572;10.170;2022-11-09T00:03:44;4.50;;;1.42;;
50605;SDS011;36557;53.572;10.170;2022-11-09T00:06:10;4.55;;;1.35;;
50605;SDS011;36557;53.572;10.170;2022-11-09T00:08:37;4.13;;;1.55;;
50605;SDS011;36557;53.572;10.170;2022-11-09T00:11:04;2.22;;;1.27;;
50605;SDS011;36557;53.572;10.170;2022-11-09T00:13:33;3.47;;;1.38;;
50605;SDS011;36557;53.572;10.170;2022-11-09T00:16:00;5.32;;;1.40;;
50605;SDS011;36557;53.572;10.170;2022-11-09T00:18:27;3.67;;;1.25;;
50605;SDS011;36557;53.572;10.170;2022-11-09T00:20:53;2.35;;;1.10;;
50605;SDS011;36557;53.572;10.170;2022-11-09T00:23:19;2.72;;;1.35;;
50605;SDS011;36557;53.572;10.170;2022-11-09T00:25:46;3.47;;;1.05;;
50605;SDS011;36557;53.572;10.170;2022-11-09T00:28:12;3.47;;;1.52;;
50605;SDS011;36557;53.572;10.170;2022-11-09T00:30:39;1.92;;;1.30;;
50605;SDS011;36557;53.572;10.170;2022-11-09T00:33:05;3.65;;;1.48;;
50605;SDS011;36557;53.572;10.170;2022-11-09T00:35:32;3.67;;;1.35;;
50605;SDS011;36557;53.572;10.170;2022-11-09T00:37:58;3.38;;;1.45;;
50605;SDS011;36557;53.572;10.170;2022-11-09T00:40:24;3.35;;;1.50;;
50605;SDS011;36557;53.572;10.170;2022-11-09T00:42:50;2.08;;;1.08;;
50605;SDS011;36557;53.572;10.170;2022-11-09T00:45:16;3.38;;;1.48;;
50605;SDS011;36557;53.572;10.170;2022-11-09T00:47:42;2.28;;;1.20;;
50605;SDS011;36557;53.572;10.170;2022-11-09T00:50:08;4.70;;;1.92;;
50605;SDS011;36557;53.572;10.170;2022-11-09T00:52:34;5.80;;;1.63;;
50605;SDS011;36557;53.572;10.170;2022-11-09T00:55:00;7.05;;;1.63;;
50605;SDS011;36557;53.572;10.170;2022-11-09T00:57:25;2.55;;;1.25;;
50605;SDS011;36557;53.572;10.170;2022-11-09T00:59:51;2.75;;;1.15;;
50605;SDS011;36557;53.572;10.170;2022-11-09T01:02:18;5.57;;;1.40;;
50605;SDS011;36557;53.572;10.170;2022-11-09T01:04:44;3.90;;;1.33;;
50605;SDS011;36557;53.572;10.170;2022-11-09T01:07:09;6.40;;;1.30;;
50605;SDS011;36557;53.572;10.170;2022-11-09T01:09:35;3.75;;;1.10;;
50605;SDS011;36557;53.572;10.170;2022-11-09T01:12:01;4.28;;;1.50;;
50605;SDS011;36557;53.572;10.170;2022-11-09T01:14:26;2.88;;;1.10;;
50605;SDS011;36557;53.572;10.170;2022-11-09T01:16:52;3.15;;;1.50;;
50605;SDS011;36557;53.572;10.170;2022-11-09T01:19:18;3.28;;;1.35;;
50605;SDS011;36557;53.572;10.170;2022-11-09T01:21:44;3.47;;;1.30;;
50605;SDS011;36557;53.572;10.170;2022-11-09T01:24:09;4.72;;;1.40;;
50605;SDS011;36557;53.572;10.170;2022-11-09T01:26:35;3.17;;;1.33;;
50605;SDS011;36557;53.572;10.170;2022-11-09T01:29:01;2.80;;;1.33;;
50605;SDS011;36557;53.572;10.170;2022-11-09T01:31:27;3.15;;;1.42;;
50605;SDS011;36557;53.572;10.170;2022-11-09T01:33:53;5.45;;;2.05;;
50605;SDS011;36557;53.572;10.170;2022-11-09T01:36:20;2.33;;;1.58;;
50605;SDS011;36557;53.572;10.170;2022-11-09T01:38:47;1.50;;;1.10;;
50605;SDS011;36557;53.572;10.170;2022-11-09T01:41:14;2.42;;;1.40;;
50605;SDS011;36557;53.572;10.170;2022-11-09T01:44:08;2.83;;;1.45;;
50605;SDS011;36557;53.572;10.170;2022-11-09T01:49:33;2.88;;;1.20;;
50605;SDS011;36557;53.572;10.170;2022-11-09T01:52:17;3.70;;;1.40;;
50605;SDS011;36557;53.572;10.170;2022-11-09T01:54:47;4.70;;;1.55;;
50605;SDS011;36557;53.572;10.170;2022-11-09T01:57:18;3.58;;;1.70;;
50605;SDS011;36557;53.572;10.170;2022-11-09T02:00:00;2.25;;;1.20;;
50605;SDS011;36557;53.572;10.170;2022-11-09T02:02:32;2.63;;;1.20;;
50605;SDS011;36557;53.572;10.170;2022-11-09T02:05:00;3.08;;;1.20;;
50605;SDS011;36557;53.572;10.170;2022-11-09T02:07:30;3.00;;;1.58;;
50605;SDS011;36557;53.572;10.170;2022-11-09T02:10:02;4.50;;;1.58;;
50605;SDS011;36557;53.572;10.170;2022-11-09T02:12:32;3.30;;;1.30;;
50605;SDS011;36557;53.572;10.170;2022-11-09T02:15:00;4.55;;;1.40;;
50605;SDS011;36557;53.572;10.170;2022-11-09T02:17:28;6.13;;;1.50;;
50605;SDS011;36557;53.572;10.170;2022-11-09T02:19:57;3.25;;;1.13;;
50605;SDS011;36557;53.572;10.170;2022-11-09T02:22:23;6.65;;;1.63;;
50605;SDS011;36557;53.572;10.170;2022-11-09T02:24:49;2.25;;;1.30;;
50605;SDS011;36557;53.572;10.170;2022-11-09T02:27:15;3.08;;;1.40;;
50605;SDS011;36557;53.572;10.170;2022-11-09T02:29:42;3.53;;;1.50;;
50605;SDS011;36557;53.572;10.170;2022-11-09T02:32:11;3.00;;;1.00;;
50605;SDS011;36557;53.572;10.170;2022-11-09T02:34:44;3.17;;;1.50;;
50605;SDS011;36557;53.572;10.170;2022-11-09T02:37:10;2.22;;;1.27;;
50605;SDS011;36557;53.572;10.170;2022-11-09T02:39:36;2.80;;;1.35;;
50605;SDS011;36557;53.572;10.170;2022-11-09T02:42:07;2.70;;;1.40;;
50605;SDS011;36557;53.572;10.170;2022-11-09T02:44:39;3.42;;;1.25;;
50605;SDS011;36557;53.572;10.170;2022-11-09T02:47:08;3.85;;;1.27;;
50605;SDS011;36557;53.572;10.170;2022-11-09T02:49:34;2.50;;;1.13;;
50605;SDS011;36557;53.572;10.170;2022-11-09T02:52:00;2.20;;;1.38;;
50605;SDS011;36557;53.572;10.170;2022-11-09T02:54:25;4.20;;;1.33;;
50605;SDS011;36557;53.572;10.170;2022-11-09T02:56:51;4.80;;;1.42;;
50605;SDS011;36557;53.572;10.170;2022-11-09T02:59:17;2.35;;;1.45;;
50605;SDS011;36557;53.572;10.170;2022-11-09T03:01:42;2.70;;;1.25;;
50605;SDS011;36557;53.572;10.170;2022-11-09T03:04:08;2.38;;;1.10;;
50605;SDS011;36557;53.572;10.170;2022-11-09T03:06:34;2.53;;;1.10;;
50605;SDS011;36557;53.572;10.170;2022-11-09T03:09:04;3.33;;;1.23;;
50605;SDS011;36557;53.572;10.170;2022-11-09T03:11:31;2.75;;;1.38;;
50605;SDS011;36557;53.572;10.170;2022-11-09T03:13:57;1.50;;;1.20;;
50605;SDS011;36557;53.572;10.170;2022-11-09T03:16:23;3.47;;;1.40;;
50605;SDS011;36557;53.572;10.170;2022-11-09T03:18:49;2.40;;;1.10;;
50605;SDS011;36557;53.572;10.170;2022-11-09T03:21:16;3.47;;;1.30;;
50605;SDS011;36557;53.572;10.170;2022-11-09T03:23:42;4.78;;;1.10;;
50605;SDS011;36557;53.572;10.170;2022-11-09T03:26:07;3.13;;;1.30;;
50605;SDS011;36557;53.572;10.170;2022-11-09T03:28:33;3.47;;;1.20;;
50605;SDS011;36557;53.572;10.170;2022-11-09T03:30:59;5.28;;;1.40;;
50605;SDS011;36557;53.572;10.170;2022-11-09T03:33:24;2.83;;;1.20;;
50605;SDS011;36557;53.572;10.170;2022-11-09T03:35:50;7.72;;;1.40;;
50605;SDS011;36557;53.572;10.170;2022-11-09T03:38:16;3.92;;;1.45;;
50605;SDS011;36557;53.572;10.170;2022-11-09T03:40:42;6.63;;;1.63;;
50605;SDS011;36557;53.572;10.170;2022-11-09T03:43:07;5.03;;;1.33;;
50605;SDS011;36557;53.572;10.170;2022-11-09T03:45:33;6.85;;;1.60;;
50605;SDS011;36557;53.572;10.170;2022-11-09T03:47:59;2.42;;;1.30;;
50605;SDS011;36557;53.572;10.170;2022-11-09T03:50:29;2.85;;;1.27;;
50605;SDS011;36557;53.572;10.170;2022-11-09T03:52:56;1.73;;;1.40;;
50605;SDS011;36557;53.572;10.170;2022-11-09T03:55:22;3.53;;;1.60;;
50605;SDS011;36557;53.572;10.170;2022-11-09T03:57:48;3.90;;;1.42;;
50605;SDS011;36557;53.572;10.170;2022-11-09T04:00:15;2.95;;;1.38;;
50605;SDS011;36557;53.572;10.170;2022-11-09T04:02:42;3.53;;;1.33;;
50605;SDS011;36557;53.572;10.170;2022-11-09T04:05:09;2.05;;;1.20;;
50605;SDS011;36557;53.572;10.170;2022-11-09T04:07:35;2.85;;;1.30;;
50605;SDS011;36557;53.572;10.170;2022-11-09T04:10:01;5.38;;;1.25;;
50605;SDS011;36557;53.572;10.170;2022-11-09T04:12:28;3.78;;;1.27;;
50605;SDS011;36557;53.572;10.170;2022-11-09T04:14:54;4.72;;;1.40;;
50605;SDS011;36557;53.572;10.170;2022-11-09T04:17:20;2.53;;;1.27;;
50605;SDS011;36557;53.572;10.170;2022-11-09T04:19:45;9.65;;;1.52;;
50605;SDS011;36557;53.572;10.170;2022-11-09T04:22:11;3.88;;;1.30;;
50605;SDS011;36557;53.572;10.170;2022-11-09T04:24:37;3.53;;;1.35;;
50605;SDS011;36557;53.572;10.170;2022-11-09T04:27:03;3.10;;;1.33;;
50605;SDS011;36557;53.572;10.170;2022-11-09T04:29:28;4.00;;;1.40;;
50605;SDS011;36557;53.572;10.170;2022-11-09T04:31:54;2.50;;;1.33;;
50605;SDS011;36557;53.572;10.170;2022-11-09T04:34:20;4.93;;;1.40;;
50605;SDS011;36557;53.572;10.170;2022-11-09T04:36:45;1.92;;;1.20;;
50605;SDS011;36557;53.572;10.170;2022-11-09T04:39:11;2.92;;;1.20;;
50605;SDS011;36557;53.572;10.170;2022-11-09T04:41:37;2.28;;;1.20;;
50605;SDS011;36557;53.572;10.170;2022-11-09T04:44:03;3.80;;;1.42;;
50605;SDS011;36557;53.572;10.170;2022-11-09T04:46:28;4.28;;;1.40;;
50605;SDS011;36557;53.572;10.170;2022-11-09T04:48:54;4.93;;;1.20;;
50605;SDS011;36557;53.572;10.170;2022-11-09T04:51:20;1.90;;;1.00;;
50605;SDS011;36557;53.572;10.170;2022-11-09T04:53:45;3.30;;;1.40;;
50605;SDS011;36557;53.572;10.170;2022-11-09T04:56:11;2.40;;;1.25;;
50605;SDS011;36557;53.572;10.170;2022-11-09T04:58:37;4.28;;;1.25;;
50605;SDS011;36557;53.572;10.170;2022-11-09T05:01:09;2.50;;;1.20;;
50605;SDS011;36557;53.572;10.170;2022-11-09T05:03:36;3.88;;;1.30;;
50605;SDS011;36557;53.572;10.170;2022-11-09T05:06:03;2.65;;;1.20;;
50605;SDS011;36557;53.572;10.170;2022-11-09T05:08:48;2.67;;;1.13;;
50605;SDS011;36557;53.572;10.170;2022-11-09T05:11:13;2.90;;;1.17;;
50605;SDS011;36557;53.572;10.170;2022-11-09T05:13:39;4.18;;;1.60;;
50605;SDS011;36557;53.572;10.170;2022-11-09T05:16:05;1.77;;;1.20;;
50605;SDS011;36557;53.572;10.170;2022-11-09T05:18:31;4.53;;;1.52;;
50605;SDS011;36557;53.572;10.170;2022-11-09T05:21:00;3.08;;;1.40;;
50605;SDS011;36557;53.572;10.170;2022-11-09T05:23:26;2.28;;;1.20;;
50605;SDS011;36557;53.572;10.170;2022-11-09T05:26:11;1.63;;;1.00;;
50605;SDS011;36557;53.572;10.170;2022-11-09T05:28:37;2.55;;;1.30;;
50605;SDS011;36557;53.572;10.170;2022-11-09T05:31:03;2.50;;;1.23;;
50605;SDS011;36557;53.572;10.170;2022-11-09T05:33:29;3.08;;;1.08;;
50605;SDS011;36557;53.572;10.170;2022-11-09T05:35:55;4.65;;;1.35;;
50605;SDS011;36557;53.572;10.170;2022-11-09T05:38:21;3.20;;;1.23;;
50605;SDS011;36557;53.572;10.170;2022-11-09T05:40:53;2.70;;;1.20;;
50605;SDS011;36557;53.572;10.170;2022-11-09T05:43:18;3.33;;;1.40;;
50605;SDS011;36557;53.572;10.170;2022-11-09T05:45:46;3.42;;;1.23;;
50605;SDS011;36557;53.572;10.170;2022-11-09T05:48:12;2.50;;;1.20;;
50605;SDS011;36557;53.572;10.170;2022-11-09T05:50:39;2.08;;;1.10;;
50605;SDS011;36557;53.572;10.170;2022-11-09T05:53:05;3.00;;;1.35;;
50605;SDS011;36557;53.572;10.170;2022-11-09T05:55:31;3.65;;;1.52;;
50605;SDS011;36557;53.572;10.170;2022-11-09T05:57:57;2.78;;;1.00;;
50605;SDS011;36557;53.572;10.170;2022-11-09T06:00:23;2.47;;;1.33;;
50605;SDS011;36557;53.572;10.170;2022-11-09T06:02:49;10.05;;;4.50;;
50605;SDS011;36557;53.572;10.170;2022-11-09T06:05:14;4.57;;;1.42;;
50605;SDS011;36557;53.572;10.170;2022-11-09T06:07:41;2.15;;;1.17;;
50605;SDS011;36557;53.572;10.170;2022-11-09T06:10:07;2.40;;;1.20;;
50605;SDS011;36557;53.572;10.170;2022-11-09T06:12:33;3.63;;;1.35;;
50605;SDS011;36557;53.572;10.170;2022-11-09T06:14:59;2.42;;;1.27;;
50605;SDS011;36557;53.572;10.170;2022-11-09T06:17:25;6.47;;;1.50;;
50605;SDS011;36557;53.572;10.170;2022-11-09T06:19:51;4.35;;;1.27;;
50605;SDS011;36557;53.572;10.170;2022-11-09T06:22:16;3.00;;;1.10;;
50605;SDS011;36557;53.572;10.170;2022-11-09T06:24:42;3.53;;;1.10;;
50605;SDS011;36557;53.572;10.170;2022-11-09T06:27:08;5.28;;;1.50;;
50605;SDS011;36557;53.572;10.170;2022-11-09T06:29:34;6.47;;;1.80;;
50605;SDS011;36557;53.572;10.170;2022-11-09T06:32:00;3.17;;;1.10;;
50605;SDS011;36557;53.572;10.170;2022-11-09T06:34:25;2.60;;;1.15;;
50605;SDS011;36557;53.572;10.170;2022-11-09T06:36:51;1.75;;;1.00;;
50605;SDS011;36557;53.572;10.170;2022-11-09T06:39:17;1.70;;;1.10;;
50605;SDS011;36557;53.572;10.170;2022-11-09T06:41:42;1.73;;;0.90;;
50605;SDS011;36557;53.572;10.170;2022-11-09T06:44:08;2.83;;;1.20;;
50605;SDS011;36557;53.572;10.170;2022-11-09T06:46:34;1.90;;;1.10;;
50605;SDS011;36557;53.572;10.170;2022-11-09T06:49:00;4.47;;;1.70;;
50605;SDS011;36557;53.572;10.170;2022-11-09T06:51:25;3.65;;;1.50;;
50605;SDS011;36557;53.572;10.170;2022-11-09T06:53:51;5.25;;;1.27;;
50605;SDS011;36557;53.572;10.170;2022-11-09T06:56:17;2.65;;;1.13;;
50605;SDS011;36557;53.572;10.170;2022-11-09T06:58:43;8.05;;;1.20;;
50605;SDS011;36557;53.572;10.170;2022-11-09T07:01:09;2.47;;;0.93;;
50605;SDS011;36557;53.572;10.170;2022-11-09T07:03:36;2.67;;;1.40;;
50605;SDS011;36557;53.572;10.170;2022-11-09T07:06:03;10.93;;;1.42;;
50605;SDS011;36557;53.572;10.170;2022-11-09T07:08:31;6.32;;;1.10;;
50605;SDS011;36557;53.572;10.170;2022-11-09T07:11:11;8.40;;;1.10;;
50605;SDS011;36557;53.572;10.170;2022-11-09T07:13:40;10.82;;;1.45;;
50605;SDS011;36557;53.572;10.170;2022-11-09T07:16:06;2.60;;;1.00;;
50605;SDS011;36557;53.572;10.170;2022-11-09T07:18:32;5.30;;;1.10;;
50605;SDS011;36557;53.572;10.170;2022-11-09T07:20:58;3.45;;;1.00;;
50605;SDS011;36557;53.572;10.170;2022-11-09T07:23:24;9.65;;;1.70;;
50605;SDS011;36557;53.572;10.170;2022-11-09T07:25:50;7.60;;;1.33;;
50605;SDS011;36557;53.572;10.170;2022-11-09T07:28:16;3.33;;;1.20;;
50605;SDS011;36557;53.572;10.170;2022-11-09T07:30:42;4.38;;;1.55;;
50605;SDS011;36557;53.572;10.170;2022-11-09T07:33:15;2.63;;;1.35;;
50605;SDS011;36557;53.572;10.170;2022-11-09T07:35:44;4.57;;;1.50;;
50605;SDS011;36557;53.572;10.170;2022-11-09T07:38:10;3.85;;;1.13;;
50605;SDS011;36557;53.572;10.170;2022-11-09T07:40:37;2.53;;;1.10;;
50605;SDS011;36557;53.572;10.170;2022-11-09T07:43:04;2.50;;;1.27;;
50605;SDS011;36557;53.572;10.170;2022-11-09T07:45:31;5.13;;;1.23;;
50605;SDS011;36557;53.572;10.170;2022-11-09T07:47:59;3.90;;;1.55;;
50605;SDS011;36557;53.572;10.170;2022-11-09T07:50:27;5.72;;;1.20;;
50605;SDS011;36557;53.572;10.170;2022-11-09T07:52:54;3.33;;;1.15;;
50605;SDS011;36557;53.572;10.170;2022-11-09T07:55:20;3.08;;;1.10;;
50605;SDS011;36557;53.572;10.170;2022-11-09T07:57:47;4.05;;;1.33;;
50605;SDS011;36557;53.572;10.170;2022-11-09T08:00:13;1.88;;;1.10;;
50605;SDS011;36557;53.572;10.170;2022-11-09T08:02:39;3.85;;;1.50;;
50605;SDS011;36557;53.572;10.170;2022-11-09T08:05:05;3.22;;;1.38;;
50605;SDS011;36557;53.572;10.170;2022-11-09T08:07:31;6.07;;;1.50;;
50605;SDS011;36557;53.572;10.170;2022-11-09T08:09:58;5.13;;;1.50;;
50605;SDS011;36557;53.572;10.170;2022-11-09T08:12:24;2.22;;;1.25;;
50605;SDS011;36557;53.572;10.170;2022-11-09T08:14:49;4.80;;;1.20;;
50605;SDS011;36557;53.572;10.170;2022-11-09T08:17:15;7.28;;;1.33;;
50605;SDS011;36557;53.572;10.170;2022-11-09T08:19:41;2.95;;;1.13;;
50605;SDS011;36557;53.572;10.170;2022-11-09T08:22:06;4.32;;;1.30;;
50605;SDS011;36557;53.572;10.170;2022-11-09T08:24:32;3.80;;;1.25;;
50605;SDS011;36557;53.572;10.170;2022-11-09T08:26:57;3.28;;;1.20;;
50605;SDS011;36557;53.572;10.170;2022-11-09T08:29:23;3.63;;;1.30;;
50605;SDS011;36557;53.572;10.170;2022-11-09T08:31:49;1.67;;;1.02;;
50605;SDS011;36557;53.572;10.170;2022-11-09T08:34:15;4.20;;;1.20;;
50605;SDS011;36557;53.572;10.170;2022-11-09T08:36:41;3.72;;;1.30;;
50605;SDS011;36557;53.572;10.170;2022-11-09T08:39:07;8.20;;;1.40;;
50605;SDS011;36557;53.572;10.170;2022-11-09T08:41:33;4.68;;;1.15;;
50605;SDS011;36557;53.572;10.170;2022-11-09T08:43:59;5.82;;;1.40;;
50605;SDS011;36557;53.572;10.170;2022-11-09T08:46:24;3.00;;;1.17;;
50605;SDS011;36557;53.572;10.170;2022-11-09T08:48:50;4.22;;;1.20;;
50605;SDS011;36557;53.572;10.170;2022-11-09T08:51:16;4.00;;;1.30;;
50605;SDS011;36557;53.572;10.170;2022-11-09T08:53:41;4.00;;;1.25;;
50605;SDS011;36557;53.572;10.170;2022-11-09T08:56:07;4.18;;;1.20;;
50605;SDS011;36557;53.572;10.170;2022-11-09T08:58:34;3.58;;;1.10;;
50605;SDS011;36557;53.572;10.170;2022-11-09T09:01:00;4.57;;;1.27;;
50605;SDS011;36557;53.572;10.170;2022-11-09T09:03:25;4.70;;;1.23;;
50605;SDS011;36557;53.572;10.170;2022-11-09T09:05:51;4.93;;;1.38;;
50605;SDS011;36557;53.572;10.170;2022-11-09T09:08:17;10.80;;;1.27;;
50605;SDS011;36557;53.572;10.170;2022-11-09T09:10:46;7.22;;;1.52;;
50605;SDS011;36557;53.572;10.170;2022-11-09T09:13:11;4.85;;;1.27;;
50605;SDS011;36557;53.572;10.170;2022-11-09T09:15:37;4.65;;;1.20;;
50605;SDS011;36557;53.572;10.170;2022-11-09T09:18:03;7.03;;;1.60;;
50605;SDS011;36557;53.572;10.170;2022-11-09T09:20:30;5.43;;;1.48;;
50605;SDS011;36557;53.572;10.170;2022-11-09T09:22:58;4.18;;;1.33;;
50605;SDS011;36557;53.572;10.170;2022-11-09T09:25:25;5.00;;;1.20;;
50605;SDS011;36557;53.572;10.170;2022-11-09T09:27:51;9.75;;;1.55;;
50605;SDS011;36557;53.572;10.170;2022-11-09T09:30:17;6.55;;;1.30;;
50605;SDS011;36557;53.572;10.170;2022-11-09T09:32:43;4.00;;;1.10;;
50605;SDS011;36557;53.572;10.170;2022-11-09T09:35:08;6.13;;;1.25;;
50605;SDS011;36557;53.572;10.170;2022-11-09T09:37:35;5.43;;;1.42;;
50605;SDS011;36557;53.572;10.170;2022-11-09T09:40:01;4.20;;;1.60;;
50605;SDS011;36557;53.572;10.170;2022-11-09T09:42:33;5.70;;;1.33;;
50605;SDS011;36557;53.572;10.170;2022-11-09T09:50:22;4.63;;;1.45;;
50605;SDS011;36557;53.572;10.170;2022-11-09T09:58:08;9.52;;;2.58;;
50605;SDS011;36557;53.572;10.170;2022-11-09T10:00:35;5.45;;;1.48;;
50605;SDS011;36557;53.572;10.170;2022-11-09T10:03:03;4.57;;;1.10;;
50605;SDS011;36557;53.572;10.170;2022-11-09T10:05:45;4.10;;;1.20;;
50605;SDS011;36557;53.572;10.170;2022-11-09T10:11:10;4.68;;;1.67;;
50605;SDS011;36557;53.572;10.170;2022-11-09T10:16:39;4.53;;;1.27;;
50605;SDS011;36557;53.572;10.170;2022-11-09T10:19:28;5.57;;;1.33;;
50605;SDS011;36557;53.572;10.170;2022-11-09T10:25:03;10.27;;;1.58;;
50605;SDS011;36557;53.572;10.170;2022-11-09T10:27:36;5.45;;;1.38;;
50605;SDS011;36557;53.572;10.170;2022-11-09T10:30:17;4.05;;;1.20;;
50605;SDS011;36557;53.572;10.170;2022-11-09T10:32:48;7.45;;;2.45;;
50605;SDS011;36557;53.572;10.170;2022-11-09T10:35:20;3.25;;;1.50;;
50605;SDS011;36557;53.572;10.170;2022-11-09T10:37:54;7.82;;;1.42;;
50605;SDS011;36557;53.572;10.170;2022-11-09T10:42:49;4.20;;;1.00;;
50605;SDS011;36557;53.572;10.170;2022-11-09T10:45:28;4.47;;;1.25;;
50605;SDS011;36557;53.572;10.170;2022-11-09T10:47:55;7.15;;;1.60;;
50605;SDS011;36557;53.572;10.170;2022-11-09T10:52:50;3.97;;;1.25;;
50605;SDS011;36557;53.572;10.170;2022-11-09T10:57:59;5.38;;;1.38;;
50605;SDS011;36557;53.572;10.170;2022-11-09T11:00:31;8.23;;;1.75;;
50605;SDS011;36557;53.572;10.170;2022-11-09T11:02:58;5.88;;;1.67;;
50605;SDS011;36557;53.572;10.170;2022-11-09T11:05:42;4.68;;;1.20;;
50605;SDS011;36557;53.572;10.170;2022-11-09T11:08:21;4.82;;;1.27;;
50605;SDS011;36557;53.572;10.170;2022-11-09T11:11:04;5.93;;;1.33;;
50605;SDS011;36557;53.572;10.170;2022-11-09T11:13:32;7.82;;;1.33;;
50605;SDS011;36557;53.572;10.170;2022-11-09T11:15:58;5.72;;;1.30;;
50605;SDS011;36557;53.572;10.170;2022-11-09T11:18:24;5.18;;;1.20;;
50605;SDS011;36557;53.572;10.170;2022-11-09T11:21:05;4.72;;;1.20;;
50605;SDS011;36557;53.572;10.170;2022-11-09T11:23:37;9.60;;;1.40;;
50605;SDS011;36557;53.572;10.170;2022-11-09T11:26:08;4.30;;;0.90;;
50605;SDS011;36557;53.572;10.170;2022-11-09T11:28:49;1.85;;;0.93;;
50605;SDS011;36557;53.572;10.170;2022-11-09T11:31:19;4.40;;;1.20;;
50605;SDS011;36557;53.572;10.170;2022-11-09T11:33:46;7.88;;;1.38;;
50605;SDS011;36557;53.572;10.170;2022-11-09T11:44:23;7.78;;;1.90;;
50605;SDS011;36557;53.572;10.170;2022-11-09T11:47:06;4.30;;;1.27;;
50605;SDS011;36557;53.572;10.170;2022-11-09T11:49:47;8.70;;;2.08;;
50605;SDS011;36557;53.572;10.170;2022-11-09T11:52:37;4.38;;;1.20;;
50605;SDS011;36557;53.572;10.170;2022-11-09T11:55:15;5.18;;;1.40;;
50605;SDS011;36557;53.572;10.170;2022-11-09T12:00:57;5.93;;;1.27;;
50605;SDS011;36557;53.572;10.170;2022-11-09T12:03:39;9.70;;;1.52;;
50605;SDS011;36557;53.572;10.170;2022-11-09T12:17:20;7.80;;;1.42;;
50605;SDS011;36557;53.572;10.170;2022-11-09T12:25:44;5.47;;;1.73;;
50605;SDS011;36557;53.572;10.170;2022-11-09T12:36:21;6.32;;;1.25;;
50605;SDS011;36557;53.572;10.170;2022-11-09T12:42:09;6.82;;;1.60;;
50605;SDS011;36557;53.572;10.170;2022-11-09T12:44:57;7.45;;;1.10;;
50605;SDS011;36557;53.572;10.170;2022-11-09T12:47:42;4.82;;;1.30;;
50605;SDS011;36557;53.572;10.170;2022-11-09T12:50:15;8.63;;;1.42;;
50605;SDS011;36557;53.572;10.170;2022-11-09T12:52:43;6.07;;;1.15;;
50605;SDS011;36557;53.572;10.170;2022-11-09T12:55:14;6.47;;;1.20;;
50605;SDS011;36557;53.572;10.170;2022-11-09T12:57:55;4.97;;;1.00;;
50605;SDS011;36557;53.572;10.170;2022-11-09T13:03:00;3.42;;;1.10;;
50605;SDS011;36557;53.572;10.170;2022-11-09T13:05:37;5.20;;;1.45;;
50605;SDS011;36557;53.572;10.170;2022-11-09T13:08:04;4.13;;;1.20;;
50605;SDS011;36557;53.572;10.170;2022-11-09T13:20:55;4.03;;;1.40;;
50605;SDS011;36557;53.572;10.170;2022-11-09T13:23:41;5.85;;;1.63;;
50605;SDS011;36557;53.572;10.170;2022-11-09T13:26:20;5.80;;;1.67;;
50605;SDS011;36557;53.572;10.170;2022-11-09T13:34:40;4.28;;;1.58;;
50605;SDS011;36557;53.572;10.170;2022-11-09T13:48:01;5.50;;;1.40;;
50605;SDS011;36557;53.572;10.170;2022-11-09T13:50:29;3.70;;;1.02;;
50605;SDS011;36557;53.572;10.170;2022-11-09T13:52:57;4.78;;;1.23;;
50605;SDS011;36557;53.572;10.170;2022-11-09T13:55:34;9.27;;;2.40;;
50605;SDS011;36557;53.572;10.170;2022-11-09T13:58:09;4.97;;;1.42;;
50605;SDS011;36557;53.572;10.170;2022-11-09T14:00:45;4.85;;;1.20;;
50605;SDS011;36557;53.572;10.170;2022-11-09T14:03:19;5.57;;;1.20;;
50605;SDS011;36557;53.572;10.170;2022-11-09T14:05:56;6.15;;;1.20;;
50605;SDS011;36557;53.572;10.170;2022-11-09T14:08:26;5.63;;;1.15;;
50605;SDS011;36557;53.572;10.170;2022-11-09T14:24:28;5.32;;;1.35;;
50605;SDS011;36557;53.572;10.170;2022-11-09T14:29:35;4.32;;;1.20;;
50605;SDS011;36557;53.572;10.170;2022-11-09T14:32:29;7.50;;;1.52;;
50605;SDS011;36557;53.572;10.170;2022-11-09T14:37:47;8.18;;;1.50;;
50605;SDS011;36557;53.572;10.170;2022-11-09T14:40:15;5.60;;;0.93;;
50605;SDS011;36557;53.572;10.170;2022-11-09T14:42:45;6.28;;;1.15;;
50605;SDS011;36557;53.572;10.170;2022-11-09T14:45:19;5.70;;;1.20;;
50605;SDS011;36557;53.572;10.170;2022-11-09T14:47:47;7.22;;;1.38;;
50605;SDS011;36557;53.572;10.170;2022-11-09T14:50:16;4.35;;;1.27;;
50605;SDS011;36557;53.572;10.170;2022-11-09T14:52:45;6.47;;;1.42;;
50605;SDS011;36557;53.572;10.170;2022-11-09T14:55:12;8.35;;;1.23;;
50605;SDS011;36557;53.572;10.170;2022-11-09T14:57:40;6.80;;;1.42;;
50605;SDS011;36557;53.572;10.170;2022-11-09T15:02:50;5.32;;;1.90;;
50605;SDS011;36557;53.572;10.170;2022-11-09T15:05:29;10.43;;;2.55;;
50605;SDS011;36557;53.572;10.170;2022-11-09T15:08:04;9.95;;;2.83;;
50605;SDS011;36557;53.572;10.170;2022-11-09T15:10:51;10.20;;;3.00;;
50605;SDS011;36557;53.572;10.170;2022-11-09T15:13:18;10.13;;;2.78;;
50605;SDS011;36557;53.572;10.170;2022-11-09T15:15:53;6.97;;;1.52;;
50605;SDS011;36557;53.572;10.170;2022-11-09T15:18:23;8.52;;;2.25;;
50605;SDS011;36557;53.572;10.170;2022-11-09T15:24:04;7.45;;;2.10;;
50605;SDS011;36557;53.572;10.170;2022-11-09T15:26:42;7.45;;;2.22;;
50605;SDS011;36557;53.572;10.170;2022-11-09T15:29:24;8.40;;;1.83;;
50605;SDS011;36557;53.572;10.170;2022-11-09T15:34:38;11.02;;;4.05;;
50605;SDS011;36557;53.572;10.170;2022-11-09T15:37:17;8.80;;;2.30;;
50605;SDS011;36557;53.572;10.170;2022-11-09T15:39:48;7.25;;;2.75;;
50605;SDS011;36557;53.572;10.170;2022-11-09T15:42:14;9.98;;;3.08;;
50605;SDS011;36557;53.572;10.170;2022-11-09T15:44:40;9.43;;;4.13;;
50605;SDS011;36557;53.572;10.170;2022-11-09T15:47:15;9.68;;;3.22;;
50605;SDS011;36557;53.572;10.170;2022-11-09T15:50:06;11.90;;;2.92;;
50605;SDS011;36557;53.572;10.170;2022-11-09T15:52:39;8.32;;;3.08;;
50605;SDS011;36557;53.572;10.170;2022-11-09T15:55:11;6.43;;;2.10;;
50605;SDS011;36557;53.572;10.170;2022-11-09T15:57:40;8.90;;;2.42;;
50605;SDS011;36557;53.572;10.170;2022-11-09T16:00:11;11.60;;;2.53;;
50605;SDS011;36557;53.572;10.170;2022-11-09T16:02:38;11.13;;;2.70;;
50605;SDS011;36557;53.572;10.170;2022-11-09T16:05:04;8.05;;;3.63;;
50605;SDS011;36557;53.572;10.170;2022-11-09T16:07:30;5.18;;;2.20;;
50605;SDS011;36557;53.572;10.170;2022-11-09T16:09:56;5.45;;;1.67;;
50605;SDS011;36557;53.572;10.170;2022-11-09T16:12:21;3.40;;;1.50;;
50605;SDS011;36557;53.572;10.170;2022-11-09T16:14:47;8.38;;;3.35;;
50605;SDS011;36557;53.572;10.170;2022-11-09T16:17:13;7.75;;;3.03;;
50605;SDS011;36557;53.572;10.170;2022-11-09T16:19:39;12.73;;;3.28;;
50605;SDS011;36557;53.572;10.170;2022-11-09T16:22:06;6.30;;;2.53;;
50605;SDS011;36557;53.572;10.170;2022-11-09T16:24:32;9.50;;;3.22;;
50605;SDS011;36557;53.572;10.170;2022-11-09T16:26:58;6.53;;;2.47;;
50605;SDS011;36557;53.572;10.170;2022-11-09T16:29:26;9.40;;;2.60;;
50605;SDS011;36557;53.572;10.170;2022-11-09T16:31:53;6.53;;;2.20;;
50605;SDS011;36557;53.572;10.170;2022-11-09T16:34:19;5.18;;;1.85;;
50605;SDS011;36557;53.572;10.170;2022-11-09T16:36:45;5.10;;;1.80;;
50605;SDS011;36557;53.572;10.170;2022-11-09T16:39:12;5.63;;;2.05;;
50605;SDS011;36557;53.572;10.170;2022-11-09T16:41:41;3.70;;;1.30;;
50605;SDS011;36557;53.572;10.170;2022-11-09T16:44:10;7.03;;;1.65;;
50605;SDS011;36557;53.572;10.170;2022-11-09T16:46:37;3.97;;;1.40;;
50605;SDS011;36557;53.572;10.170;2022-11-09T16:49:06;3.35;;;1.48;;